Time;durP1;ratioP1;P1;durP2;ratioP2;P2;SDS_P1;SDS_P2;PMS_P1;PMS_P2;Temp;Humidity;BMP_temperature;BMP_pressure;BME280_temperature;BME280_humidity;BME280_pressure;Samples;Min_cycle;Max_cycle;Signal;HPM_P1;HPM_P2
2022/01/07 00:02:10;;;;;;;4.60;2.40;;;0.20;99.90;;;;;;5016702;28;20219;-65
2022/01/07 00:04:36;;;;;;;5.13;2.30;;;0.30;99.90;;;;;;5024423;28;20200;-65
2022/01/07 00:07:05;;;;;;;4.03;2.20;;;0.30;99.90;;;;;;5022602;28;20449;-62
2022/01/07 00:09:31;;;;;;;5.47;3.27;;;0.30;99.90;;;;;;5022121;28;20748;-62
2022/01/07 00:11:57;;;;;;;8.27;2.73;;;0.30;99.90;;;;;;5021376;28;20276;-63
2022/01/07 00:14:23;;;;;;;8.43;2.70;;;0.20;99.90;;;;;;5022410;28;20709;-66
2022/01/07 00:16:49;;;;;;;3.83;2.53;;;0.20;99.90;;;;;;5023917;28;20277;-63
2022/01/07 00:19:15;;;;;;;5.80;2.60;;;0.10;99.90;;;;;;5021954;28;20188;-65
2022/01/07 00:21:42;;;;;;;6.83;3.30;;;0.10;99.90;;;;;;5022973;28;20216;-64
2022/01/07 00:24:07;;;;;;;6.73;2.57;;;0.20;99.90;;;;;;5019753;28;20284;-64
2022/01/07 00:26:33;;;;;;;5.00;2.50;;;0.10;99.90;;;;;;5022286;28;20644;-66
2022/01/07 00:28:58;;;;;;;5.40;3.40;;;0.20;99.90;;;;;;5017684;28;20193;-63
2022/01/07 00:31:24;;;;;;;7.03;3.03;;;0.20;99.90;;;;;;5020932;28;20196;-64
2022/01/07 00:33:50;;;;;;;2.70;2.30;;;0.20;99.90;;;;;;5014562;28;20723;-63
2022/01/07 00:36:15;;;;;;;4.17;2.80;;;0.20;99.90;;;;;;5017713;28;20682;-65
2022/01/07 00:38:41;;;;;;;3.90;2.30;;;0.10;99.90;;;;;;5017778;28;20680;-67
2022/01/07 00:41:07;;;;;;;3.07;2.17;;;0.10;99.90;;;;;;5019591;28;20232;-64
2022/01/07 00:43:33;;;;;;;4.40;2.20;;;0.00;99.90;;;;;;5023562;28;20188;-63
2022/01/07 00:45:59;;;;;;;5.17;2.00;;;0.10;99.90;;;;;;5020340;28;20181;-64
2022/01/07 00:48:24;;;;;;;5.53;2.53;;;0.00;99.90;;;;;;5020696;28;20211;-64
2022/01/07 00:50:50;;;;;;;4.50;2.33;;;0.00;99.90;;;;;;5018560;28;20213;-63
2022/01/07 00:53:15;;;;;;;7.83;2.80;;;0.00;99.90;;;;;;5018658;28;20189;-63
2022/01/07 00:55:41;;;;;;;4.67;2.67;;;0.00;99.90;;;;;;5020895;28;20658;-64
2022/01/07 00:58:07;;;;;;;4.87;2.97;;;0.00;99.90;;;;;;5022448;28;20185;-63
2022/01/07 01:00:33;;;;;;;6.33;2.90;;;0.10;99.90;;;;;;5020665;28;20232;-68
2022/01/07 01:02:59;;;;;;;9.40;2.50;;;0.00;99.90;;;;;;5025154;28;20189;-64
2022/01/07 01:05:25;;;;;;;4.80;2.83;;;0.10;99.90;;;;;;5026910;28;20208;-64
2022/01/07 01:07:51;;;;;;;6.63;2.30;;;0.00;99.90;;;;;;5020247;28;20603;-63
2022/01/07 01:10:20;;;;;;;6.83;2.17;;;0.10;99.90;;;;;;5021479;28;20216;-64
2022/01/07 01:12:47;;;;;;;3.03;2.10;;;0.10;99.90;;;;;;5019686;28;20631;-64
2022/01/07 01:15:16;;;;;;;5.07;1.97;;;0.10;99.90;;;;;;5018363;28;20198;-63
2022/01/07 01:17:42;;;;;;;3.70;1.80;;;0.10;99.90;;;;;;5018376;28;20284;-66
2022/01/07 01:20:10;;;;;;;2.67;1.70;;;0.20;99.90;;;;;;5017626;28;20191;-64
2022/01/07 01:22:36;;;;;;;6.27;1.90;;;0.20;99.90;;;;;;5015180;28;20680;-63
2022/01/07 01:25:04;;;;;;;4.00;2.27;;;0.20;99.90;;;;;;5019366;28;20215;-63
2022/01/07 01:27:29;;;;;;;5.03;1.93;;;0.20;99.90;;;;;;5021421;28;20222;-63
2022/01/07 01:29:55;;;;;;;1.90;1.67;;;0.30;99.90;;;;;;5019513;28;20185;-70
2022/01/07 01:32:21;;;;;;;2.90;1.93;;;0.20;99.90;;;;;;5026034;28;20200;-62
2022/01/07 01:34:46;;;;;;;3.17;1.80;;;0.20;99.90;;;;;;5024947;28;20236;-64
2022/01/07 01:37:12;;;;;;;6.30;2.10;;;0.30;99.90;;;;;;5028969;28;20287;-68
2022/01/07 01:39:38;;;;;;;2.20;1.60;;;0.30;99.90;;;;;;5021441;28;20196;-64
2022/01/07 01:42:04;;;;;;;2.33;1.40;;;0.20;99.90;;;;;;5018763;28;20672;-66
2022/01/07 01:44:30;;;;;;;2.60;1.87;;;0.20;99.90;;;;;;5018249;28;20193;-63
2022/01/07 01:46:56;;;;;;;5.50;2.17;;;0.10;99.90;;;;;;5020212;28;20189;-64
2022/01/07 01:49:22;;;;;;;2.80;1.90;;;0.10;99.90;;;;;;5016534;28;20593;-64
2022/01/07 01:51:48;;;;;;;3.80;1.63;;;0.10;99.90;;;;;;5019409;28;20202;-63
2022/01/07 01:54:14;;;;;;;4.07;1.90;;;0.00;99.90;;;;;;5020602;28;20185;-65
2022/01/07 01:56:41;;;;;;;2.60;1.73;;;-0.10;99.90;;;;;;5018058;28;20193;-63
2022/01/07 01:59:07;;;;;;;6.27;1.90;;;-0.10;99.90;;;;;;5019274;28;20181;-64
2022/01/07 02:01:34;;;;;;;7.23;1.87;;;0.00;99.90;;;;;;5015474;28;20682;-70
2022/01/07 02:04:00;;;;;;;2.87;1.80;;;-0.10;99.90;;;;;;5018867;28;20266;-65
2022/01/07 02:06:26;;;;;;;2.77;1.87;;;-0.20;99.90;;;;;;5024608;28;20280;-66
2022/01/07 02:08:52;;;;;;;9.57;2.00;;;-0.20;99.90;;;;;;5014437;28;20260;-64
2022/01/07 02:11:19;;;;;;;2.73;1.70;;;-0.20;99.90;;;;;;5022059;28;20669;-66
2022/01/07 02:13:48;;;;;;;2.20;1.60;;;-0.10;99.90;;;;;;5020336;28;20192;-63
2022/01/07 02:16:16;;;;;;;4.63;1.90;;;-0.10;99.90;;;;;;5019791;28;20250;-65
2022/01/07 02:18:43;;;;;;;2.37;1.67;;;-0.10;99.90;;;;;;5019050;28;20278;-66
2022/01/07 02:21:10;;;;;;;2.83;1.50;;;0.00;99.90;;;;;;5018151;28;20221;-63
2022/01/07 02:23:36;;;;;;;4.13;1.70;;;-0.10;99.90;;;;;;5023371;28;20194;-66
2022/01/07 02:26:02;;;;;;;3.50;1.67;;;-0.10;99.90;;;;;;5024379;28;25645;-65
2022/01/07 02:28:33;;;;;;;6.30;2.00;;;-0.10;99.90;;;;;;5028779;28;20208;-64
2022/01/07 02:30:58;;;;;;;4.27;2.00;;;-0.10;99.90;;;;;;5024655;28;20200;-63
2022/01/07 02:33:24;;;;;;;1.77;1.53;;;-0.20;99.90;;;;;;5030309;28;20225;-64
2022/01/07 02:35:50;;;;;;;6.10;1.40;;;-0.10;99.90;;;;;;5024118;28;20193;-63
2022/01/07 02:38:17;;;;;;;4.23;1.47;;;-0.10;99.90;;;;;;5036046;28;20266;-65
2022/01/07 02:40:43;;;;;;;2.20;1.30;;;-0.10;99.90;;;;;;5017506;28;20216;-64
2022/01/07 02:43:09;;;;;;;5.60;2.40;;;-0.10;99.90;;;;;;5019652;28;20691;-64
2022/01/07 02:45:35;;;;;;;3.40;1.97;;;-0.20;99.90;;;;;;5015673;28;20331;-67
2022/01/07 02:48:03;;;;;;;3.63;1.53;;;-0.20;99.90;;;;;;5019539;28;20184;-64
2022/01/07 02:50:35;;;;;;;4.07;1.80;;;-0.20;99.90;;;;;;5014855;28;20235;-63
2022/01/07 02:53:04;;;;;;;3.20;1.70;;;-0.10;99.90;;;;;;5015339;28;20189;-64
2022/01/07 02:55:30;;;;;;;3.50;1.57;;;0.00;99.90;;;;;;5014040;28;20235;-63
2022/01/07 02:57:56;;;;;;;2.07;1.40;;;-0.10;99.90;;;;;;5020141;28;20191;-63
2022/01/07 03:00:24;;;;;;;2.70;1.43;;;-0.10;99.90;;;;;;5018957;28;20194;-63
2022/01/07 03:02:50;;;;;;;2.50;1.47;;;-0.10;99.90;;;;;;5019986;28;20197;-64
2022/01/07 03:05:17;;;;;;;4.13;1.80;;;0.00;99.90;;;;;;5017550;28;20184;-67
2022/01/07 03:07:47;;;;;;;8.37;1.63;;;-0.10;99.90;;;;;;5016333;28;20636;-63
2022/01/07 03:10:13;;;;;;;3.03;1.60;;;-0.10;99.90;;;;;;5015248;28;20189;-62
2022/01/07 03:12:40;;;;;;;2.07;1.60;;;-0.10;99.90;;;;;;5017377;28;20182;-63
2022/01/07 03:15:06;;;;;;;2.30;1.73;;;-0.20;99.90;;;;;;5015958;28;20178;-66
2022/01/07 03:17:32;;;;;;;4.40;1.70;;;-0.10;99.90;;;;;;5013786;28;20208;-64
2022/01/07 03:19:58;;;;;;;2.10;1.47;;;-0.30;99.90;;;;;;5018067;28;20221;-64
2022/01/07 03:22:24;;;;;;;2.70;1.70;;;-0.20;99.90;;;;;;5016706;28;20270;-64
2022/01/07 03:24:49;;;;;;;5.30;2.13;;;-0.30;99.90;;;;;;5019072;28;20190;-62
2022/01/07 03:27:15;;;;;;;5.17;1.80;;;-0.30;99.90;;;;;;5022425;28;20192;-63
2022/01/07 03:29:41;;;;;;;4.90;2.10;;;-0.30;99.90;;;;;;5020672;28;20771;-62
2022/01/07 03:32:07;;;;;;;2.70;1.87;;;-0.30;99.90;;;;;;5017759;28;20253;-62
2022/01/07 03:34:32;;;;;;;5.43;2.10;;;-0.20;99.90;;;;;;5016799;28;20226;-65
2022/01/07 03:36:58;;;;;;;3.43;2.07;;;-0.30;99.90;;;;;;5018582;28;20769;-67
2022/01/07 03:39:24;;;;;;;3.27;1.90;;;-0.30;99.90;;;;;;5017248;28;21164;-65
2022/01/07 03:41:50;;;;;;;3.50;1.90;;;-0.30;99.90;;;;;;5015456;28;20215;-64
2022/01/07 03:44:15;;;;;;;5.50;1.87;;;-0.30;99.90;;;;;;5017418;28;20181;-65
2022/01/07 03:46:41;;;;;;;6.07;1.83;;;-0.30;99.90;;;;;;5025802;28;20212;-65
2022/01/07 03:49:07;;;;;;;4.60;1.93;;;-0.30;99.90;;;;;;5023116;28;20190;-66
2022/01/07 03:51:32;;;;;;;3.93;1.90;;;-0.30;99.90;;;;;;5023247;28;20293;-63
2022/01/07 03:53:58;;;;;;;2.60;1.60;;;-0.40;99.90;;;;;;5017689;28;20188;-64
2022/01/07 03:56:23;;;;;;;4.90;1.80;;;-0.30;99.90;;;;;;5019738;28;20645;-62
2022/01/07 03:58:49;;;;;;;2.30;1.80;;;-0.30;99.90;;;;;;5027308;28;20198;-71
2022/01/07 04:01:15;;;;;;;5.37;2.40;;;-0.30;99.90;;;;;;5027314;28;20231;-65
2022/01/07 04:03:40;;;;;;;3.50;1.90;;;-0.40;99.90;;;;;;5023661;28;20212;-64
2022/01/07 04:06:06;;;;;;;8.93;2.33;;;-0.30;99.90;;;;;;5014955;28;20224;-64
2022/01/07 04:08:32;;;;;;;6.93;2.30;;;-0.30;99.90;;;;;;5016565;28;20211;-64
2022/01/07 04:10:58;;;;;;;5.80;2.00;;;-0.30;99.90;;;;;;5015517;28;20200;-64
2022/01/07 04:13:23;;;;;;;5.40;1.90;;;-0.30;99.90;;;;;;5018456;28;20287;-63
2022/01/07 04:15:49;;;;;;;9.20;1.97;;;-0.30;99.90;;;;;;5015799;28;20194;-63
2022/01/07 04:18:15;;;;;;;4.10;2.00;;;-0.40;99.90;;;;;;5018047;28;20195;-63
2022/01/07 04:20:40;;;;;;;5.50;2.13;;;-0.40;99.90;;;;;;5022629;28;20227;-64
2022/01/07 04:23:07;;;;;;;3.83;2.33;;;-0.30;99.90;;;;;;5023416;28;20415;-64
2022/01/07 04:25:34;;;;;;;5.40;2.60;;;-0.50;99.90;;;;;;5022486;28;20661;-66
2022/01/07 04:28:07;;;;;;;8.17;2.70;;;-0.40;99.90;;;;;;5020946;28;20804;-64
2022/01/07 04:30:36;;;;;;;3.73;2.37;;;-0.30;99.90;;;;;;5018425;28;20279;-68
2022/01/07 04:33:03;;;;;;;5.77;2.20;;;-0.40;99.90;;;;;;5017970;28;20185;-66
2022/01/07 04:35:30;;;;;;;5.53;2.50;;;-0.40;99.90;;;;;;5033543;28;20204;-64
2022/01/07 04:37:56;;;;;;;7.93;2.57;;;-0.30;99.90;;;;;;5019433;28;20189;-64
2022/01/07 04:40:22;;;;;;;6.90;2.37;;;-0.30;99.90;;;;;;5020448;28;20189;-64
2022/01/07 04:42:48;;;;;;;4.83;1.90;;;-0.10;99.90;;;;;;5021281;28;20189;-65
2022/01/07 04:45:15;;;;;;;7.13;2.50;;;-0.40;99.90;;;;;;5020595;28;20270;-64
2022/01/07 04:47:41;;;;;;;5.53;2.30;;;-0.30;99.90;;;;;;5020818;28;20190;-63
2022/01/07 04:50:13;;;;;;;3.77;2.17;;;-0.30;99.90;;;;;;5018788;28;20193;-65
2022/01/07 04:52:41;;;;;;;4.43;2.40;;;-0.30;99.90;;;;;;5019582;28;20529;-63
2022/01/07 04:55:07;;;;;;;6.13;2.50;;;-0.40;99.90;;;;;;5018764;28;20193;-68
2022/01/07 04:57:32;;;;;;;8.23;2.93;;;-0.40;99.90;;;;;;5019164;28;20671;-68
2022/01/07 04:59:58;;;;;;;4.13;2.43;;;-0.30;99.90;;;;;;5019755;28;20194;-65
2022/01/07 05:02:24;;;;;;;3.97;2.50;;;-0.40;99.90;;;;;;5020536;28;20213;-68
2022/01/07 05:04:49;;;;;;;6.27;2.47;;;-0.30;99.90;;;;;;5022171;28;20196;-63
2022/01/07 05:07:16;;;;;;;7.40;3.10;;;-0.40;99.90;;;;;;5021363;28;20176;-63
2022/01/07 05:09:42;;;;;;;6.00;2.37;;;-0.40;99.90;;;;;;5020052;28;20178;-66
2022/01/07 05:12:08;;;;;;;3.80;2.37;;;-0.40;99.90;;;;;;5020318;28;20190;-64
2022/01/07 05:14:34;;;;;;;4.27;2.53;;;-0.40;99.90;;;;;;5025747;28;20272;-65
2022/01/07 05:17:00;;;;;;;6.33;2.57;;;-0.40;99.90;;;;;;5024316;28;20222;-68
2022/01/07 05:19:25;;;;;;;4.53;2.43;;;-0.40;99.90;;;;;;5025396;28;20698;-67
2022/01/07 05:21:51;;;;;;;2.87;2.23;;;-0.30;99.90;;;;;;5029700;28;20233;-65
2022/01/07 05:24:16;;;;;;;4.67;2.30;;;-0.30;99.90;;;;;;5024523;28;20253;-67
2022/01/07 05:26:42;;;;;;;4.83;2.90;;;-0.30;99.90;;;;;;5021125;28;20202;-68
2022/01/07 05:29:08;;;;;;;8.63;3.03;;;-0.30;99.90;;;;;;5024384;28;20191;-64
2022/01/07 05:31:33;;;;;;;4.93;3.00;;;-0.30;99.90;;;;;;5019830;28;20193;-64
2022/01/07 05:33:59;;;;;;;5.97;3.40;;;-0.30;99.90;;;;;;5020960;28;20266;-64
2022/01/07 05:36:25;;;;;;;7.20;2.70;;;-0.20;99.90;;;;;;5020070;28;20197;-64
2022/01/07 05:38:51;;;;;;;8.73;3.37;;;-0.20;99.90;;;;;;5019589;28;20196;-64
2022/01/07 05:41:18;;;;;;;5.77;3.23;;;-0.20;99.90;;;;;;5020767;28;20209;-66
2022/01/07 05:43:44;;;;;;;5.27;2.87;;;-0.10;99.90;;;;;;5018097;28;20665;-66
2022/01/07 05:46:14;;;;;;;9.13;3.40;;;-0.10;99.90;;;;;;5018182;28;20284;-63
2022/01/07 05:48:44;;;;;;;9.43;2.97;;;-0.10;99.90;;;;;;5019870;28;20169;-64
2022/01/07 05:51:10;;;;;;;5.37;3.77;;;-0.20;99.90;;;;;;5024446;28;20195;-65
2022/01/07 05:53:36;;;;;;;5.03;3.50;;;-0.20;99.90;;;;;;5019630;28;20197;-64
2022/01/07 05:56:02;;;;;;;9.37;3.30;;;-0.10;99.90;;;;;;5018187;28;20201;-64
2022/01/07 05:58:27;;;;;;;4.97;2.93;;;0.00;99.90;;;;;;5018041;28;20196;-63
2022/01/07 06:00:53;;;;;;;6.07;3.20;;;-0.10;99.90;;;;;;5016280;28;20217;-63
2022/01/07 06:03:19;;;;;;;10.17;3.73;;;-0.10;99.90;;;;;;5017568;28;20630;-69
2022/01/07 06:05:44;;;;;;;5.07;3.30;;;-0.10;99.90;;;;;;5015583;28;20189;-64
2022/01/07 06:08:10;;;;;;;7.73;3.90;;;-0.10;99.90;;;;;;5017366;28;20192;-68
2022/01/07 06:10:36;;;;;;;6.40;3.33;;;0.00;99.90;;;;;;5017982;28;20250;-64
2022/01/07 06:13:02;;;;;;;5.03;3.40;;;-0.10;99.90;;;;;;5020250;28;20189;-63
2022/01/07 06:15:27;;;;;;;13.80;6.20;;;-0.10;99.90;;;;;;5017382;28;20192;-63
2022/01/07 06:17:53;;;;;;;7.60;4.30;;;0.00;99.90;;;;;;5019847;28;20308;-64
2022/01/07 06:20:21;;;;;;;6.77;3.63;;;-0.10;99.90;;;;;;5021267;28;20210;-67
2022/01/07 06:22:47;;;;;;;7.27;4.63;;;0.00;99.90;;;;;;5020339;28;20225;-65
2022/01/07 06:25:12;;;;;;;8.03;3.93;;;0.00;99.90;;;;;;5026402;28;20191;-65
2022/01/07 06:27:38;;;;;;;9.77;5.10;;;-0.10;99.90;;;;;;5027743;28;20216;-65
2022/01/07 06:30:08;;;;;;;15.53;8.93;;;0.00;99.90;;;;;;5026140;28;20190;-64
2022/01/07 06:32:34;;;;;;;10.67;6.07;;;0.00;99.90;;;;;;5022881;28;20273;-63
2022/01/07 06:35:00;;;;;;;13.57;7.07;;;0.10;99.90;;;;;;5023969;28;21000;-68
2022/01/07 06:37:25;;;;;;;15.63;7.87;;;0.00;99.90;;;;;;5019803;28;20717;-64
2022/01/07 06:39:51;;;;;;;15.80;6.20;;;0.10;99.90;;;;;;5020260;28;20180;-64
2022/01/07 06:42:17;;;;;;;17.40;7.60;;;0.10;99.90;;;;;;5016054;28;20298;-64
2022/01/07 06:44:42;;;;;;;19.13;8.23;;;0.30;99.90;;;;;;5016396;28;20250;-63
2022/01/07 06:47:08;;;;;;;8.47;4.23;;;0.10;99.90;;;;;;5017669;28;20267;-69
2022/01/07 06:49:34;;;;;;;9.20;4.20;;;0.10;99.90;;;;;;5019933;28;20189;-64
2022/01/07 06:51:59;;;;;;;7.53;4.87;;;0.20;99.90;;;;;;5017892;28;20200;-64
2022/01/07 06:54:27;;;;;;;10.90;4.83;;;0.30;99.90;;;;;;5019298;28;20192;-64
2022/01/07 06:56:53;;;;;;;10.93;4.00;;;0.20;99.90;;;;;;5019678;28;20762;-64
2022/01/07 06:59:18;;;;;;;6.63;3.97;;;0.20;99.90;;;;;;5017195;28;20181;-66
2022/01/07 07:01:47;;;;;;;8.80;4.67;;;0.20;99.90;;;;;;5014748;28;20766;-64
2022/01/07 07:04:14;;;;;;;12.70;5.80;;;0.20;99.90;;;;;;5020014;28;20192;-63
2022/01/07 07:06:39;;;;;;;11.63;6.50;;;0.30;99.90;;;;;;5018675;28;20189;-64
2022/01/07 07:09:05;;;;;;;8.80;5.43;;;0.30;99.90;;;;;;5025721;28;20247;-63
2022/01/07 07:11:32;;;;;;;8.23;4.37;;;0.20;99.90;;;;;;5022379;28;20210;-67
2022/01/07 07:13:57;;;;;;;7.07;4.20;;;0.30;99.90;;;;;;5015447;28;20197;-65
2022/01/07 07:16:23;;;;;;;5.17;3.63;;;0.30;99.90;;;;;;5022967;28;20199;-65
2022/01/07 07:18:49;;;;;;;6.93;4.33;;;0.20;99.90;;;;;;5022605;28;20190;-72
2022/01/07 07:21:15;;;;;;;5.37;3.77;;;0.30;99.90;;;;;;5025934;28;20217;-66
2022/01/07 07:23:41;;;;;;;6.00;4.13;;;0.20;99.90;;;;;;5030121;28;20187;-65
2022/01/07 07:26:07;;;;;;;10.33;5.27;;;0.20;99.90;;;;;;5033008;28;20189;-66
2022/01/07 07:28:36;;;;;;;5.70;3.87;;;0.30;99.90;;;;;;5030786;28;20253;-70
2022/01/07 07:31:10;;;;;;;6.97;4.13;;;0.30;99.90;;;;;;5030140;28;20184;-68
2022/01/07 07:36:30;;;;;;;9.50;4.43;;;0.20;99.90;;;;;;5014355;28;20189;-66
2022/01/07 07:38:58;;;;;;;8.10;4.43;;;0.30;99.90;;;;;;5019439;28;20182;-66
2022/01/07 07:41:25;;;;;;;8.83;4.37;;;0.30;99.90;;;;;;5019808;28;20204;-66
2022/01/07 07:43:50;;;;;;;9.50;4.90;;;0.30;99.90;;;;;;5018202;28;20185;-64
2022/01/07 07:46:20;;;;;;;9.83;4.70;;;0.30;99.90;;;;;;5019635;28;20188;-63
2022/01/07 07:48:47;;;;;;;11.03;5.23;;;0.40;99.90;;;;;;5017228;28;20253;-65
2022/01/07 07:51:13;;;;;;;10.40;5.53;;;0.40;99.90;;;;;;5015209;28;20199;-68
2022/01/07 07:53:39;;;;;;;7.77;5.10;;;0.40;99.90;;;;;;5018344;28;20251;-66
2022/01/07 07:56:05;;;;;;;10.13;4.57;;;0.60;99.90;;;;;;5019780;28;20190;-63
2022/01/07 07:58:30;;;;;;;8.30;5.20;;;0.60;99.90;;;;;;5025587;28;20196;-65
2022/01/07 08:00:57;;;;;;;10.63;5.00;;;0.50;99.90;;;;;;5022234;28;20213;-63
2022/01/07 08:03:24;;;;;;;8.17;5.37;;;0.60;99.90;;;;;;5020697;28;20185;-64
2022/01/07 08:05:49;;;;;;;18.17;7.80;;;0.70;99.90;;;;;;5020208;28;20272;-63
2022/01/07 08:08:15;;;;;;;12.97;5.73;;;0.70;99.90;;;;;;5018129;28;20268;-63
2022/01/07 08:10:47;;;;;;;11.87;7.20;;;0.80;99.90;;;;;;5018042;28;20196;-64
2022/01/07 08:15:58;;;;;;;10.90;5.47;;;0.70;99.90;;;;;;5017291;28;20197;-63
2022/01/07 08:18:28;;;;;;;13.00;5.43;;;0.80;99.90;;;;;;5016831;28;20185;-67
2022/01/07 08:20:56;;;;;;;13.23;4.80;;;0.80;99.90;;;;;;5019047;28;20227;-65
2022/01/07 08:23:21;;;;;;;13.20;6.10;;;0.80;99.90;;;;;;5018944;28;20189;-64
2022/01/07 08:25:48;;;;;;;9.93;5.10;;;0.80;99.90;;;;;;5014841;28;20208;-64
2022/01/07 08:28:16;;;;;;;9.90;6.30;;;0.80;99.90;;;;;;5020058;28;20187;-67
2022/01/07 08:36:12;;;;;;;12.37;5.87;;;0.90;99.90;;;;;;5018538;28;20198;-64
2022/01/07 08:38:38;;;;;;;13.60;6.77;;;0.90;99.90;;;;;;5018341;28;20181;-66
2022/01/07 08:41:03;;;;;;;13.43;6.40;;;1.00;99.90;;;;;;5015214;28;20693;-67
2022/01/07 08:43:29;;;;;;;8.60;6.30;;;0.90;99.90;;;;;;5020386;28;20553;-66
2022/01/07 08:45:55;;;;;;;10.47;6.10;;;1.00;99.90;;;;;;5016844;28;20640;-64
2022/01/07 08:48:20;;;;;;;13.73;5.63;;;1.00;99.90;;;;;;5016415;28;20197;-64
2022/01/07 08:50:46;;;;;;;11.07;6.33;;;1.00;99.90;;;;;;5015791;28;20558;-64
2022/01/07 08:53:12;;;;;;;12.67;6.00;;;1.00;99.90;;;;;;5015781;28;20193;-66
2022/01/07 08:55:38;;;;;;;10.03;6.00;;;1.00;99.90;;;;;;5016394;28;20193;-64
2022/01/07 08:58:04;;;;;;;11.27;6.10;;;1.00;99.90;;;;;;5014682;28;20721;-69
2022/01/07 09:00:30;;;;;;;8.93;5.83;;;1.10;99.90;;;;;;5017840;28;20252;-70
2022/01/07 09:02:56;;;;;;;9.80;6.23;;;1.10;99.90;;;;;;5017790;28;20722;-64
2022/01/07 09:05:22;;;;;;;12.63;6.53;;;1.10;99.90;;;;;;5020083;28;20181;-64
2022/01/07 09:07:47;;;;;;;9.00;6.47;;;1.20;99.90;;;;;;5018424;28;20185;-64
2022/01/07 09:10:13;;;;;;;9.40;5.97;;;1.20;99.90;;;;;;5017817;28;20185;-65
2022/01/07 09:12:39;;;;;;;8.53;5.57;;;1.30;99.90;;;;;;5020592;28;20265;-66
2022/01/07 09:15:05;;;;;;;9.57;5.60;;;1.30;99.90;;;;;;5021977;28;20200;-65
2022/01/07 09:17:32;;;;;;;10.67;6.27;;;1.30;99.90;;;;;;5020407;28;20189;-65
2022/01/07 09:19:59;;;;;;;11.20;6.70;;;1.40;99.90;;;;;;5026140;28;20236;-69
2022/01/07 09:22:25;;;;;;;10.23;5.73;;;1.40;99.90;;;;;;5020802;28;20300;-64
2022/01/07 09:24:50;;;;;;;11.30;6.00;;;1.50;99.90;;;;;;5021152;28;20216;-64
2022/01/07 09:27:16;;;;;;;7.97;5.63;;;1.50;99.90;;;;;;5020873;28;20543;-66
2022/01/07 09:29:42;;;;;;;10.03;5.83;;;1.70;99.90;;;;;;5020768;28;20655;-65
2022/01/07 09:32:08;;;;;;;9.23;5.83;;;1.60;99.90;;;;;;5020970;28;20185;-69
2022/01/07 09:34:35;;;;;;;8.23;5.27;;;1.60;99.90;;;;;;5018992;28;20604;-67
2022/01/07 09:37:01;;;;;;;12.70;5.80;;;1.70;99.90;;;;;;5021487;28;20191;-62
2022/01/07 09:39:27;;;;;;;10.17;6.60;;;1.70;99.90;;;;;;5021101;28;20645;-67
2022/01/07 09:41:53;;;;;;;10.27;5.80;;;1.70;99.90;;;;;;5019831;28;20311;-67
2022/01/07 09:44:19;;;;;;;8.67;5.73;;;1.80;99.90;;;;;;5017792;28;20560;-64
2022/01/07 09:46:44;;;;;;;10.03;5.47;;;1.70;99.90;;;;;;5018644;28;20731;-64
2022/01/07 09:49:10;;;;;;;7.57;4.60;;;1.80;99.90;;;;;;5021101;28;20656;-72
2022/01/07 09:51:38;;;;;;;10.53;5.80;;;4.20;99.90;;;;;;5022860;28;20184;-73
2022/01/07 09:54:05;;;;;;;9.47;5.70;;;3.60;99.90;;;;;;5016951;28;20196;-64
2022/01/07 09:56:31;;;;;;;9.03;5.23;;;2.70;99.90;;;;;;5018694;28;20188;-63
2022/01/07 09:58:57;;;;;;;10.87;5.23;;;2.40;99.90;;;;;;5018008;28;20242;-66
2022/01/07 10:01:25;;;;;;;7.67;5.00;;;2.20;99.90;;;;;;5017644;28;20211;-66
2022/01/07 10:03:52;;;;;;;10.90;5.57;;;2.10;99.90;;;;;;5016983;28;20181;-63
2022/01/07 10:06:26;;;;;;;10.93;5.63;;;2.10;99.90;;;;;;5020303;28;20624;-64
2022/01/07 10:09:11;;;;;;;11.07;5.40;;;2.10;99.90;;;;;;5023184;28;20676;-65
2022/01/07 10:11:38;;;;;;;12.00;5.17;;;2.10;99.90;;;;;;5018938;28;20338;-64
2022/01/07 10:14:36;;;;;;;8.73;5.13;;;2.10;99.90;;;;;;5019996;28;20244;-65
2022/01/07 10:17:06;;;;;;;7.63;5.07;;;2.20;99.90;;;;;;5005704;28;20250;-67
2022/01/07 10:19:41;;;;;;;15.30;6.03;;;2.20;99.90;;;;;;5015421;28;20272;-64
2022/01/07 10:22:11;;;;;;;8.00;4.97;;;2.30;99.90;;;;;;5018409;28;20217;-64
2022/01/07 10:24:55;;;;;;;8.57;5.20;;;2.50;99.90;;;;;;5018017;28;20315;-65
2022/01/07 10:27:21;;;;;;;11.30;5.47;;;2.60;99.90;;;;;;5018074;28;20197;-65
2022/01/07 10:29:47;;;;;;;9.43;5.17;;;2.60;99.90;;;;;;5014780;28;20272;-66
2022/01/07 10:32:23;;;;;;;7.23;4.60;;;2.60;99.90;;;;;;5015936;28;20443;-66
2022/01/07 10:35:15;;;;;;;7.77;4.37;;;2.70;99.90;;;;;;5023918;28;20621;-65
2022/01/07 10:37:48;;;;;;;6.80;3.93;;;2.80;99.90;;;;;;5025131;28;20637;-63
2022/01/07 10:40:40;;;;;;;12.70;4.13;;;2.90;99.90;;;;;;5026142;28;20192;-65
2022/01/07 10:43:22;;;;;;;14.67;4.43;;;3.00;99.90;;;;;;5027909;28;20240;-65
2022/01/07 10:45:57;;;;;;;11.43;4.50;;;3.10;99.90;;;;;;5024431;28;20189;-67
2022/01/07 10:48:44;;;;;;;7.63;4.00;;;3.20;99.90;;;;;;5025360;28;20189;-62
2022/01/07 10:51:12;;;;;;;7.30;4.37;;;3.30;99.90;;;;;;5022658;28;20212;-64
2022/01/07 10:53:38;;;;;;;6.50;3.67;;;3.30;99.90;;;;;;5022757;28;20322;-63
2022/01/07 10:56:14;;;;;;;8.10;3.90;;;3.40;99.90;;;;;;5022573;28;20198;-63
2022/01/07 10:58:44;;;;;;;6.13;3.80;;;3.30;99.90;;;;;;5020473;28;20274;-64
2022/01/07 11:01:34;;;;;;;8.07;3.70;;;3.50;99.90;;;;;;5017280;28;20255;-72
2022/01/07 11:04:03;;;;;;;13.17;3.67;;;3.50;99.90;;;;;;5021017;28;20190;-68
2022/01/07 11:06:30;;;;;;;14.63;3.63;;;3.40;99.90;;;;;;5034616;28;20752;-64
2022/01/07 11:08:57;;;;;;;8.60;3.73;;;3.50;99.90;;;;;;5024974;28;20191;-71
2022/01/07 11:11:25;;;;;;;4.83;3.57;;;3.60;99.90;;;;;;5022882;28;20272;-64
2022/01/07 11:13:51;;;;;;;4.80;3.27;;;3.50;99.90;;;;;;5026068;28;20794;-67
2022/01/07 11:16:18;;;;;;;8.33;3.77;;;3.40;99.90;;;;;;5024754;28;20215;-64
2022/01/07 11:18:46;;;;;;;7.47;3.90;;;3.30;99.90;;;;;;5024844;28;20189;-65
2022/01/07 11:21:15;;;;;;;4.93;3.27;;;3.30;99.90;;;;;;5024240;28;20224;-65
2022/01/07 11:23:41;;;;;;;4.63;3.37;;;3.40;99.90;;;;;;5024905;28;20217;-71
2022/01/07 11:26:08;;;;;;;5.57;3.90;;;3.40;99.90;;;;;;5027430;28;20199;-63
2022/01/07 11:28:36;;;;;;;11.97;3.70;;;3.30;99.90;;;;;;5033612;28;20708;-63
2022/01/07 11:31:14;;;;;;;8.07;4.50;;;3.40;99.90;;;;;;5021683;28;20213;-65
2022/01/07 11:33:43;;;;;;;8.50;4.27;;;3.40;99.90;;;;;;5020809;28;20767;-65
2022/01/07 11:36:32;;;;;;;7.43;4.03;;;3.40;99.90;;;;;;5019247;28;20239;-64
2022/01/07 11:39:02;;;;;;;6.77;4.10;;;3.50;99.90;;;;;;5017292;28;20201;-65
2022/01/07 11:41:43;;;;;;;6.30;4.20;;;3.50;99.90;;;;;;5021166;28;20265;-63
2022/01/07 11:44:13;;;;;;;8.37;4.97;;;3.50;99.90;;;;;;5021004;28;20180;-67
2022/01/07 11:46:42;;;;;;;9.87;4.67;;;3.60;99.90;;;;;;5019600;28;20235;-65
2022/01/07 11:49:32;;;;;;;4.37;3.53;;;3.50;99.90;;;;;;5015680;28;20216;-64
2022/01/07 11:52:18;;;;;;;8.77;4.40;;;3.50;99.90;;;;;;5014094;28;20202;-66
2022/01/07 11:54:44;;;;;;;8.37;4.03;;;3.60;99.90;;;;;;5011524;28;20236;-65
2022/01/07 11:57:12;;;;;;;10.20;4.27;;;3.70;99.90;;;;;;5019133;28;20945;-65
2022/01/07 11:59:49;;;;;;;5.83;4.10;;;3.80;99.90;;;;;;5013895;28;20264;-65
2022/01/07 12:02:14;;;;;;;5.63;2.83;;;3.70;99.90;;;;;;5019163;28;20220;-65
2022/01/07 12:04:41;;;;;;;5.23;3.10;;;3.70;99.90;;;;;;5023637;28;20195;-63
2022/01/07 12:07:10;;;;;;;10.80;3.10;;;3.70;99.90;;;;;;5019014;28;20190;-63
2022/01/07 12:09:37;;;;;;;8.23;3.83;;;3.90;99.90;;;;;;5022631;28;20266;-64
2022/01/07 12:12:11;;;;;;;9.30;5.17;;;4.00;99.90;;;;;;5023623;28;20198;-64
2022/01/07 12:14:53;;;;;;;8.60;4.20;;;4.10;99.90;;;;;;5022652;28;20204;-63
2022/01/07 12:17:20;;;;;;;5.67;3.17;;;4.10;99.90;;;;;;5023532;28;20267;-65
2022/01/07 12:19:49;;;;;;;5.03;2.97;;;4.10;99.90;;;;;;5021135;28;20556;-65
2022/01/07 12:22:20;;;;;;;6.40;3.27;;;4.10;99.90;;;;;;5020313;28;20327;-65
2022/01/07 12:24:48;;;;;;;5.63;3.00;;;4.00;99.90;;;;;;5021382;28;20188;-63
2022/01/07 12:27:24;;;;;;;6.30;2.80;;;3.80;99.90;;;;;;5019419;28;20189;-63
2022/01/07 12:29:53;;;;;;;5.17;2.93;;;3.80;99.90;;;;;;4994110;28;20192;-66
2022/01/07 12:32:19;;;;;;;6.40;3.57;;;3.90;99.90;;;;;;5012947;28;20234;-66
2022/01/07 12:34:50;;;;;;;8.30;3.90;;;3.90;99.90;;;;;;5016024;28;20704;-64
2022/01/07 12:37:19;;;;;;;5.83;3.90;;;4.00;99.90;;;;;;5013373;28;20243;-63
2022/01/07 12:39:48;;;;;;;4.37;2.53;;;4.00;99.90;;;;;;5016303;28;20183;-64
2022/01/07 12:42:16;;;;;;;5.30;3.40;;;4.10;99.90;;;;;;5018777;28;20218;-67
2022/01/07 12:44:57;;;;;;;7.07;3.47;;;4.20;99.90;;;;;;5019599;28;20180;-68
2022/01/07 12:47:26;;;;;;;7.13;3.67;;;4.10;99.90;;;;;;5020563;28;20192;-65
2022/01/07 12:49:55;;;;;;;3.10;2.30;;;4.00;99.90;;;;;;5023011;28;20220;-70
2022/01/07 12:52:43;;;;;;;9.83;4.00;;;4.00;99.90;;;;;;5040519;28;20181;-66
2022/01/07 12:55:21;;;;;;;4.57;3.50;;;4.10;99.90;;;;;;5024954;28;20180;-67
2022/01/07 12:58:08;;;;;;;5.40;3.40;;;4.10;99.90;;;;;;5022060;28;20198;-67
2022/01/07 13:00:35;;;;;;;5.30;3.63;;;4.10;99.90;;;;;;5024702;28;20193;-65
2022/01/07 13:03:06;;;;;;;9.07;4.40;;;4.20;99.90;;;;;;5022620;28;20233;-64
2022/01/07 13:05:38;;;;;;;8.63;3.70;;;4.10;99.90;;;;;;5021250;28;20228;-62
2022/01/07 13:08:07;;;;;;;6.18;4.10;;;4.10;99.90;;;;;;5018123;28;20447;-64